Time;durP1;ratioP1;P1;durP2;ratioP2;P2;SDS_P1;SDS_P2;PMS_P1;PMS_P2;Temp;Humidity;BMP_temperature;BMP_pressure;BME280_temperature;BME280_humidity;BME280_pressure;Samples;Min_cycle;Max_cycle;Signal;HPM_P1;HPM_P2
2022/05/31 00:00:44;;;;;;;8.03;7.03;;;12.10;99.90;;;;;;5034561;28;20211;-84
2022/05/31 00:03:11;;;;;;;12.10;7.57;;;12.00;99.90;;;;;;5034791;28;20214;-84
2022/05/31 00:05:39;;;;;;;8.60;7.77;;;12.00;99.90;;;;;;5034143;28;20215;-83
2022/05/31 00:08:06;;;;;;;9.07;7.27;;;11.90;99.90;;;;;;5034764;28;20222;-84
2022/05/31 00:10:33;;;;;;;9.47;7.40;;;11.90;99.90;;;;;;5034751;28;20218;-83
2022/05/31 00:13:00;;;;;;;8.47;7.67;;;11.90;99.90;;;;;;5033954;28;20218;-83
2022/05/31 00:15:28;;;;;;;9.63;8.65;;;11.90;99.90;;;;;;5033072;28;20920;-84
2022/05/31 00:17:55;;;;;;;10.10;7.60;;;12.00;99.90;;;;;;5034689;28;20298;-84
2022/05/31 00:20:22;;;;;;;7.83;7.13;;;11.90;99.90;;;;;;5034500;28;20210;-83
2022/05/31 00:22:50;;;;;;;8.70;7.87;;;11.90;99.90;;;;;;5034013;28;20694;-84
2022/05/31 00:25:17;;;;;;;9.17;8.07;;;11.90;99.90;;;;;;5016620;28;20273;-84
2022/05/31 00:27:45;;;;;;;8.23;7.40;;;11.90;99.90;;;;;;5033807;28;20211;-84
2022/05/31 00:30:13;;;;;;;10.83;7.97;;;11.90;99.90;;;;;;5017433;28;20223;-83
2022/05/31 00:32:48;;;;;;;8.07;7.20;;;12.00;99.90;;;;;;5013599;28;20213;-84
2022/05/31 00:35:17;;;;;;;8.83;7.17;;;11.90;99.90;;;;;;5014273;28;20239;-83
2022/05/31 00:37:45;;;;;;;8.10;7.27;;;11.80;99.90;;;;;;5014225;28;20583;-84
2022/05/31 00:40:16;;;;;;;8.67;7.10;;;11.70;99.90;;;;;;5014610;28;20703;-84
2022/05/31 00:42:49;;;;;;;11.43;7.90;;;11.60;99.90;;;;;;5013955;28;20207;-84
2022/05/31 00:45:16;;;;;;;7.60;6.80;;;11.60;99.90;;;;;;5014511;28;20215;-85
2022/05/31 00:47:44;;;;;;;9.10;7.33;;;11.60;99.90;;;;;;5013519;28;20219;-84
2022/05/31 00:50:15;;;;;;;9.03;6.87;;;11.70;99.90;;;;;;5014268;28;20219;-83
2022/05/31 00:52:45;;;;;;;9.10;7.50;;;11.70;99.90;;;;;;5014455;28;20219;-84
2022/05/31 00:55:17;;;;;;;10.47;7.73;;;11.80;99.90;;;;;;5014247;28;20266;-85
2022/05/31 00:57:49;;;;;;;10.23;7.23;;;11.70;99.90;;;;;;5013881;28;20215;-83
2022/05/31 01:00:17;;;;;;;9.73;7.70;;;11.80;99.90;;;;;;5014022;28;20211;-83
2022/05/31 01:02:49;;;;;;;9.20;8.30;;;11.80;99.90;;;;;;5013854;28;20207;-83
2022/05/31 01:05:17;;;;;;;10.80;9.70;;;11.70;99.90;;;;;;5013459;28;20447;-83
2022/05/31 01:07:46;;;;;;;9.17;8.23;;;11.80;99.90;;;;;;5013886;28;20227;-82
2022/05/31 01:10:15;;;;;;;11.43;8.60;;;11.80;99.90;;;;;;5013970;28;20226;-83
2022/05/31 01:12:44;;;;;;;10.00;8.60;;;11.80;99.90;;;;;;5013579;28;20208;-83
2022/05/31 01:15:12;;;;;;;10.67;8.83;;;11.80;99.90;;;;;;5013737;28;20235;-83
2022/05/31 01:17:41;;;;;;;11.50;10.20;;;11.70;99.90;;;;;;5013438;28;20222;-82
2022/05/31 01:20:11;;;;;;;13.00;10.23;;;11.80;99.90;;;;;;5013794;28;20215;-83
2022/05/31 01:22:41;;;;;;;10.73;8.50;;;11.80;99.90;;;;;;5013690;28;20582;-83
2022/05/31 01:25:29;;;;;;;9.50;8.40;;;11.70;99.90;;;;;;5013306;28;20347;-83
2022/05/31 01:28:06;;;;;;;11.27;8.90;;;11.70;99.90;;;;;;5013028;28;20671;-84
2022/05/31 01:30:36;;;;;;;13.18;11.18;;;11.70;99.90;;;;;;5013485;28;20440;-83
2022/05/31 01:33:09;;;;;;;13.67;10.17;;;11.60;99.90;;;;;;5013240;28;20689;-83
2022/05/31 01:35:38;;;;;;;11.13;9.63;;;11.60;99.90;;;;;;5013523;28;20235;-84
2022/05/31 01:38:09;;;;;;;12.63;9.23;;;11.60;99.90;;;;;;5013556;28;20215;-83
2022/05/31 01:40:53;;;;;;;10.37;9.23;;;11.60;99.90;;;;;;5013438;28;20689;-83
2022/05/31 01:43:22;;;;;;;14.03;9.93;;;11.50;99.90;;;;;;5013723;28;20219;-82
2022/05/31 01:45:54;;;;;;;11.60;9.83;;;11.40;99.90;;;;;;5013519;28;20290;-83
2022/05/31 01:48:21;;;;;;;12.70;9.47;;;11.40;99.90;;;;;;5013118;28;20207;-83
2022/05/31 01:50:50;;;;;;;10.63;8.73;;;11.40;99.90;;;;;;5013560;28;20212;-83
2022/05/31 01:53:17;;;;;;;12.77;9.60;;;11.50;99.90;;;;;;5013507;28;20212;-83
2022/05/31 01:55:45;;;;;;;11.60;10.35;;;11.40;99.90;;;;;;5012429;28;20444;-83
2022/05/31 01:58:18;;;;;;;11.67;10.57;;;11.40;99.90;;;;;;5013307;28;20223;-83
2022/05/31 02:00:45;;;;;;;10.30;9.37;;;11.50;99.90;;;;;;5013055;28;20272;-84
2022/05/31 02:03:16;;;;;;;10.17;9.20;;;11.40;99.90;;;;;;5013583;28;20611;-83
2022/05/31 02:05:47;;;;;;;10.50;9.33;;;11.40;99.90;;;;;;5013410;28;20211;-83
2022/05/31 02:08:16;;;;;;;12.37;8.70;;;11.40;99.90;;;;;;5013081;28;20238;-83
2022/05/31 02:10:45;;;;;;;10.70;8.40;;;11.50;99.90;;;;;;5013234;28;20212;-85
2022/05/31 02:13:12;;;;;;;12.53;8.27;;;11.50;99.90;;;;;;5013095;28;20306;-83
2022/05/31 02:15:39;;;;;;;9.40;8.43;;;11.40;99.90;;;;;;5013390;28;20683;-84
2022/05/31 02:18:06;;;;;;;9.27;8.37;;;11.50;99.90;;;;;;5013428;28;20218;-84
2022/05/31 02:20:33;;;;;;;10.30;8.30;;;11.40;99.90;;;;;;5013515;28;20441;-83
2022/05/31 02:22:59;;;;;;;10.03;8.73;;;11.40;99.90;;;;;;5013545;28;20218;-84
2022/05/31 02:25:28;;;;;;;9.13;8.23;;;11.40;99.90;;;;;;5012781;28;20232;-85
2022/05/31 02:27:55;;;;;;;9.43;8.53;;;11.50;99.90;;;;;;5012963;28;20211;-85
2022/05/31 02:30:22;;;;;;;12.07;9.13;;;11.50;99.90;;;;;;5016208;28;20305;-83
2022/05/31 02:32:49;;;;;;;11.50;9.23;;;11.40;99.90;;;;;;5016803;28;20219;-83
2022/05/31 02:35:16;;;;;;;10.70;9.73;;;11.40;99.90;;;;;;5016309;28;20236;-84
2022/05/31 02:37:43;;;;;;;12.13;9.80;;;11.50;99.90;;;;;;5016899;28;20219;-82
2022/05/31 02:40:11;;;;;;;13.87;9.97;;;11.50;99.90;;;;;;5016444;28;20216;-84
2022/05/31 02:42:41;;;;;;;10.63;9.53;;;11.60;99.90;;;;;;5016581;28;20226;-84
2022/05/31 02:45:09;;;;;;;12.50;10.00;;;11.60;99.90;;;;;;5016105;28;20212;-84
2022/05/31 02:47:37;;;;;;;15.15;11.55;;;11.60;99.90;;;;;;5015603;28;20431;-84
2022/05/31 02:50:05;;;;;;;11.67;10.47;;;11.80;99.90;;;;;;5016622;28;20318;-84
2022/05/31 02:52:32;;;;;;;11.67;10.07;;;11.80;99.90;;;;;;5016821;28;20552;-83
2022/05/31 02:54:59;;;;;;;14.03;9.43;;;11.80;99.90;;;;;;5016259;28;20224;-83
2022/05/31 02:57:26;;;;;;;17.67;9.60;;;11.80;99.90;;;;;;5016504;28;20216;-83
2022/05/31 02:59:54;;;;;;;11.23;9.83;;;11.80;99.90;;;;;;5016062;28;20582;-83
2022/05/31 03:02:21;;;;;;;11.63;9.97;;;11.80;99.90;;;;;;5016292;28;20204;-83
2022/05/31 03:04:47;;;;;;;11.83;10.60;;;11.90;99.90;;;;;;5016365;28;20255;-83
2022/05/31 03:07:14;;;;;;;12.93;9.53;;;11.90;99.90;;;;;;5015924;28;20223;-83
2022/05/31 03:09:41;;;;;;;10.57;9.07;;;11.80;99.90;;;;;;5015723;28;20258;-83
2022/05/31 03:12:12;;;;;;;11.53;10.13;;;11.80;99.90;;;;;;5016252;28;20212;-85
2022/05/31 03:14:45;;;;;;;12.40;10.03;;;11.80;99.90;;;;;;5016011;28;20220;-84
2022/05/31 03:17:17;;;;;;;10.73;9.73;;;11.70;99.90;;;;;;5015739;28;20220;-82
2022/05/31 03:19:48;;;;;;;13.30;9.03;;;11.80;99.90;;;;;;5016074;28;20223;-84
2022/05/31 03:22:18;;;;;;;13.57;10.23;;;11.90;99.90;;;;;;5015514;28;20222;-83
2022/05/31 03:24:54;;;;;;;12.97;10.13;;;11.90;99.90;;;;;;5015964;28;20667;-83
2022/05/31 03:27:21;;;;;;;14.40;10.40;;;11.80;99.90;;;;;;5015753;28;20226;-84
2022/05/31 03:29:52;;;;;;;11.37;10.17;;;11.70;99.90;;;;;;5016140;28;20211;-83
2022/05/31 03:32:22;;;;;;;13.73;10.07;;;11.70;99.90;;;;;;5015834;28;20252;-84
2022/05/31 03:34:49;;;;;;;13.07;9.90;;;11.70;99.90;;;;;;5015775;28;20239;-83
2022/05/31 03:37:18;;;;;;;13.25;11.88;;;11.60;99.90;;;;;;5014322;28;20916;-83
2022/05/31 03:39:44;;;;;;;13.70;10.83;;;11.70;99.90;;;;;;5015367;28;20254;-83
2022/05/31 03:42:11;;;;;;;11.07;9.87;;;11.80;99.90;;;;;;5014576;28;20226;-83
2022/05/31 03:44:38;;;;;;;10.97;9.83;;;11.70;99.90;;;;;;5015655;28;20223;-82
2022/05/31 03:47:06;;;;;;;14.37;10.53;;;11.90;99.90;;;;;;5015445;28;20219;-83
2022/05/31 03:49:35;;;;;;;11.50;10.30;;;11.90;99.90;;;;;;5015667;28;20550;-84
2022/05/31 03:52:02;;;;;;;15.97;10.17;;;11.90;99.90;;;;;;5015273;28;20219;-84
2022/05/31 03:54:30;;;;;;;12.97;9.27;;;11.90;99.90;;;;;;5015399;28;20228;-83
2022/05/31 03:56:57;;;;;;;15.70;9.57;;;11.80;99.90;;;;;;5015726;28;20220;-84
2022/05/31 03:59:24;;;;;;;14.37;9.50;;;11.90;99.90;;;;;;5015218;28;20686;-82
2022/05/31 04:01:51;;;;;;;14.00;11.05;;;11.90;99.90;;;;;;5014862;28;20784;-84
2022/05/31 04:04:17;;;;;;;12.73;10.17;;;12.00;99.90;;;;;;5015247;28;20675;-83
2022/05/31 04:06:46;;;;;;;10.73;9.60;;;12.00;99.90;;;;;;5014785;28;20207;-83
2022/05/31 04:09:13;;;;;;;11.40;9.27;;;12.00;99.90;;;;;;5015093;28;20220;-83
2022/05/31 04:11:39;;;;;;;10.17;9.17;;;12.00;99.90;;;;;;5015260;28;20299;-83
2022/05/31 04:14:06;;;;;;;11.60;9.40;;;12.00;99.90;;;;;;5014956;28;20238;-83
2022/05/31 04:16:35;;;;;;;12.73;9.50;;;11.90;99.90;;;;;;5014648;28;20227;-83
2022/05/31 04:19:03;;;;;;;10.43;9.43;;;11.90;99.90;;;;;;5014657;28;20670;-83
2022/05/31 04:21:29;;;;;;;10.87;9.77;;;11.80;99.90;;;;;;5014479;28;20228;-84
2022/05/31 04:24:01;;;;;;;13.17;9.97;;;11.70;99.90;;;;;;5015001;28;20212;-82
2022/05/31 04:26:31;;;;;;;13.03;9.83;;;11.60;99.90;;;;;;5014575;28;20254;-84
2022/05/31 04:28:58;;;;;;;13.30;9.27;;;11.60;99.90;;;;;;5014489;28;20238;-84
2022/05/31 04:31:25;;;;;;;11.07;9.67;;;11.80;99.90;;;;;;5014623;28;20215;-84
2022/05/31 04:33:52;;;;;;;12.40;9.87;;;11.80;99.90;;;;;;5014424;28;20213;-82
2022/05/31 04:36:21;;;;;;;12.23;10.90;;;12.00;99.90;;;;;;5014249;28;20239;-83
2022/05/31 04:38:48;;;;;;;14.70;9.87;;;12.10;99.90;;;;;;5014522;28;20219;-83
2022/05/31 04:41:22;;;;;;;14.60;10.37;;;12.10;99.90;;;;;;5014248;28;20684;-82
2022/05/31 04:43:49;;;;;;;10.80;9.53;;;12.20;99.90;;;;;;5014316;28;20211;-83
2022/05/31 04:46:18;;;;;;;13.13;9.83;;;12.20;99.90;;;;;;5014110;28;20671;-82
2022/05/31 04:48:46;;;;;;;11.23;10.03;;;12.20;99.90;;;;;;4996608;28;20743;-82
2022/05/31 04:51:14;;;;;;;9.87;8.93;;;12.20;99.90;;;;;;4996889;28;20295;-82
2022/05/31 04:53:41;;;;;;;13.47;9.40;;;12.20;99.90;;;;;;5013953;28;20211;-83
2022/05/31 04:56:10;;;;;;;12.47;9.60;;;12.30;99.90;;;;;;5014376;28;20235;-84
2022/05/31 04:58:39;;;;;;;12.00;9.80;;;12.30;99.90;;;;;;5014126;28;20213;-82
2022/05/31 05:01:06;;;;;;;14.30;10.00;;;12.20;99.90;;;;;;5015886;28;20588;-83
2022/05/31 05:03:34;;;;;;;12.53;9.43;;;12.10;99.90;;;;;;5027588;28;20668;-82
2022/05/31 05:06:02;;;;;;;17.80;10.37;;;12.20;99.90;;;;;;5033021;28;20263;-84
2022/05/31 05:08:30;;;;;;;12.33;9.90;;;12.20;99.90;;;;;;5032161;28;20223;-84
2022/05/31 05:11:00;;;;;;;12.27;9.60;;;12.30;99.90;;;;;;5033822;28;20215;-84
2022/05/31 05:13:26;;;;;;;13.53;10.10;;;12.60;99.90;;;;;;5033561;28;20220;-83
2022/05/31 05:15:55;;;;;;;10.10;9.07;;;12.40;99.90;;;;;;5033781;28;20244;-84
2022/05/31 05:18:22;;;;;;;10.73;9.57;;;12.60;99.90;;;;;;5033424;28;20299;-84
2022/05/31 05:20:49;;;;;;;12.03;9.20;;;12.70;99.90;;;;;;5033581;28;20220;-83
2022/05/31 05:23:16;;;;;;;11.40;9.23;;;12.60;99.90;;;;;;5033535;28;20221;-82
2022/05/31 05:25:48;;;;;;;11.47;9.13;;;12.70;99.90;;;;;;5033624;28;20236;-83
2022/05/31 05:31:01;;;;;;;12.43;9.37;;;12.80;99.90;;;;;;5033911;28;20270;-84
2022/05/31 05:33:28;;;;;;;11.83;8.97;;;12.90;99.90;;;;;;5033043;28;20224;-82
2022/05/31 05:35:55;;;;;;;10.60;8.87;;;13.10;99.90;;;;;;5033640;28;20234;-82
2022/05/31 05:38:22;;;;;;;8.73;7.93;;;12.80;99.90;;;;;;5033368;28;20230;-83
2022/05/31 05:40:49;;;;;;;11.17;8.40;;;13.00;99.90;;;;;;5033597;28;20552;-83
2022/05/31 05:43:16;;;;;;;9.20;8.13;;;13.00;99.90;;;;;;5033389;28;20209;-85
2022/05/31 05:45:43;;;;;;;11.03;7.93;;;13.10;99.90;;;;;;5033219;28;20612;-84
2022/05/31 05:48:11;;;;;;;10.43;8.03;;;13.00;99.90;;;;;;5033206;28;20221;-81
2022/05/31 05:50:40;;;;;;;9.33;7.97;;;12.80;99.90;;;;;;5033395;28;20655;-83
2022/05/31 05:53:10;;;;;;;10.07;7.73;;;12.90;99.90;;;;;;5033534;28;20235;-83
2022/05/31 05:55:37;;;;;;;10.73;7.73;;;13.30;99.90;;;;;;5033384;28;20268;-83
2022/05/31 05:58:07;;;;;;;8.50;7.00;;;13.60;99.90;;;;;;5033343;28;20226;-84
2022/05/31 06:00:37;;;;;;;11.37;6.97;;;13.70;99.90;;;;;;5032892;28;20727;-84
2022/05/31 06:03:11;;;;;;;9.13;7.27;;;13.70;99.90;;;;;;5033093;28;20218;-83
2022/05/31 06:05:40;;;;;;;10.23;7.57;;;13.80;99.90;;;;;;5036888;28;20226;-84
2022/05/31 06:08:10;;;;;;;7.60;6.80;;;13.80;99.90;;;;;;5037960;28;20211;-82
2022/05/31 06:10:40;;;;;;;10.23;7.40;;;13.70;99.90;;;;;;5037233;28;20220;-83
2022/05/31 06:13:10;;;;;;;8.83;6.80;;;13.80;99.90;;;;;;5036934;28;20214;-83
2022/05/31 06:15:47;;;;;;;10.97;6.70;;;14.00;99.90;;;;;;5036695;28;20230;-83
2022/05/31 06:18:17;;;;;;;8.00;6.20;;;13.80;99.90;;;;;;5036740;28;20211;-82
2022/05/31 06:20:53;;;;;;;8.07;5.87;;;13.80;99.90;;;;;;5036433;28;20214;-82
2022/05/31 06:23:20;;;;;;;7.87;6.30;;;14.00;99.90;;;;;;5036788;28;20265;-82
2022/05/31 06:25:47;;;;;;;8.83;7.00;;;14.30;99.90;;;;;;5036876;28;20239;-82
2022/05/31 06:28:14;;;;;;;11.30;7.13;;;14.30;99.90;;;;;;5037008;28;20211;-81
2022/05/31 06:30:40;;;;;;;9.17;6.80;;;14.40;99.90;;;;;;5036112;28;20222;-83
2022/05/31 06:33:07;;;;;;;11.67;7.30;;;14.60;99.90;;;;;;5036786;28;20211;-84
2022/05/31 06:35:36;;;;;;;8.17;6.83;;;14.70;99.90;;;;;;5035753;28;20261;-83
2022/05/31 06:38:04;;;;;;;13.63;7.13;;;14.80;99.90;;;;;;5036582;28;20585;-85
2022/05/31 06:40:31;;;;;;;9.70;7.00;;;14.80;99.90;;;;;;5036178;28;20218;-84
2022/05/31 06:42:58;;;;;;;9.37;6.90;;;14.50;99.90;;;;;;5036421;28;20207;-84
2022/05/31 06:45:25;;;;;;;8.83;6.40;;;14.90;99.90;;;;;;5036105;28;20211;-84
2022/05/31 06:47:51;;;;;;;8.77;7.10;;;14.90;99.90;;;;;;5036206;28;20218;-84
2022/05/31 06:50:18;;;;;;;7.70;6.87;;;15.20;99.90;;;;;;5036012;28;20219;-82
2022/05/31 06:58:15;;;;;;;9.20;7.00;;;14.70;99.90;;;;;;5036209;28;20250;-88
2022/05/31 07:00:42;;;;;;;9.37;6.70;;;14.50;99.90;;;;;;5036701;28;20215;-88
2022/05/31 07:03:08;;;;;;;11.93;7.50;;;14.90;99.90;;;;;;5037196;28;20200;-92
2022/05/31 07:05:38;;;;;;;14.93;7.37;;;14.90;99.90;;;;;;5037156;28;20211;-91
2022/05/31 07:08:05;;;;;;;11.20;7.23;;;14.70;99.90;;;;;;5037113;28;20565;-89
2022/05/31 07:10:33;;;;;;;11.10;7.67;;;14.90;99.90;;;;;;5040563;28;20215;-88
2022/05/31 07:13:00;;;;;;;12.03;7.23;;;15.00;99.90;;;;;;5041597;28;20219;-90
2022/05/31 07:15:28;;;;;;;11.40;7.07;;;14.80;99.90;;;;;;5036896;28;20230;-90
2022/05/31 07:17:56;;;;;;;12.17;7.57;;;15.10;99.90;;;;;;5036704;28;20203;-86
2022/05/31 07:20:23;;;;;;;14.47;7.40;;;15.20;99.90;;;;;;5036861;28;20670;-90
2022/05/31 07:22:52;;;;;;;12.23;6.10;;;15.10;99.90;;;;;;5036422;28;20301;-90
2022/05/31 07:25:19;;;;;;;9.23;5.07;;;14.90;99.90;;;;;;5036894;28;20241;-87
2022/05/31 07:27:47;;;;;;;8.00;5.37;;;15.30;99.90;;;;;;5036745;28;20222;-92
2022/05/31 07:30:14;;;;;;;6.83;4.63;;;15.60;99.90;;;;;;5036902;28;20204;-91
2022/05/31 07:32:41;;;;;;;7.37;5.70;;;15.60;99.90;;;;;;5001067;28;20223;-93
2022/05/31 07:35:08;;;;;;;8.90;5.50;;;15.50;99.90;;;;;;5018584;28;20632;-92
2022/05/31 07:37:35;;;;;;;8.73;5.20;;;15.40;99.90;;;;;;5018755;28;20230;-91
2022/05/31 07:40:04;;;;;;;10.77;5.77;;;15.30;99.90;;;;;;5036342;28;20219;-90
2022/05/31 07:42:31;;;;;;;8.33;5.27;;;15.20;99.90;;;;;;5035968;28;20215;-88
2022/05/31 07:45:00;;;;;;;5.97;5.17;;;15.30;99.90;;;;;;5035708;28;20217;-88
2022/05/31 07:47:27;;;;;;;6.33;5.33;;;15.30;99.90;;;;;;5036842;28;20222;-86
2022/05/31 07:49:56;;;;;;;9.38;6.13;;;15.40;99.90;;;;;;5035530;28;20443;-91
2022/05/31 07:52:23;;;;;;;7.07;4.87;;;15.60;99.90;;;;;;5036853;28;20214;-92
2022/05/31 07:54:50;;;;;;;5.87;4.73;;;15.70;99.90;;;;;;5045271;28;20689;-90
2022/05/31 08:00:04;;;;;;;5.50;4.13;;;15.80;99.90;;;;;;5035863;28;20253;-92
2022/05/31 08:02:31;;;;;;;6.53;4.70;;;15.80;99.90;;;;;;5036103;28;20216;-88
2022/05/31 08:04:57;;;;;;;8.17;4.93;;;15.70;99.90;;;;;;5038072;28;20215;-87
2022/05/31 08:07:24;;;;;;;7.73;5.00;;;15.80;99.90;;;;;;5040507;28;20282;-89
2022/05/31 08:09:51;;;;;;;6.17;4.30;;;15.80;99.90;;;;;;5042990;28;20669;-86
2022/05/31 08:12:18;;;;;;;5.40;4.63;;;16.00;99.90;;;;;;5039220;28;20212;-86
2022/05/31 08:14:45;;;;;;;5.63;4.80;;;16.10;99.90;;;;;;5035508;28;20203;-92
2022/05/31 08:17:13;;;;;;;4.90;4.50;;;16.20;99.90;;;;;;5017251;28;20215;-93
2022/05/31 08:19:40;;;;;;;4.60;3.90;;;16.20;99.90;;;;;;5035352;28;20215;-87
2022/05/31 08:22:07;;;;;;;5.90;3.70;;;16.20;99.90;;;;;;5034500;28;20211;-89
2022/05/31 08:24:34;;;;;;;8.50;4.13;;;16.40;99.90;;;;;;5035344;28;20215;-86
2022/05/31 08:27:01;;;;;;;10.07;4.30;;;16.50;99.90;;;;;;5034168;28;20223;-87
2022/05/31 08:29:30;;;;;;;5.77;3.00;;;16.70;99.90;;;;;;5035545;28;20212;-86
2022/05/31 08:31:58;;;;;;;6.93;3.22;;;16.80;99.90;;;;;;5035105;28;20419;-90
2022/05/31 08:34:27;;;;;;;4.17;2.40;;;16.90;99.90;;;;;;5034443;28;20205;-90
2022/05/31 08:36:54;;;;;;;5.03;3.27;;;16.80;99.90;;;;;;5034780;28;20761;-91
2022/05/31 08:39:22;;;;;;;3.97;2.80;;;16.70;99.90;;;;;;5035153;28;20210;-86
2022/05/31 08:41:51;;;;;;;4.67;2.87;;;16.60;99.90;;;;;;5034566;28;20218;-88
2022/05/31 08:44:35;;;;;;;3.03;2.40;;;16.70;99.90;;;;;;5034325;28;20232;-86
2022/05/31 08:47:06;;;;;;;4.17;2.40;;;16.80;99.90;;;;;;5030994;28;20228;-82
2022/05/31 08:52:57;;;;;;;2.90;1.90;;;17.10;99.90;;;;;;5034145;28;20214;-86
2022/05/31 08:58:16;;;;;;;4.80;2.60;;;17.30;99.90;;;;;;5034690;28;20572;-86
2022/05/31 09:00:47;;;;;;;2.63;1.93;;;17.30;99.90;;;;;;5034440;28;20217;-84
2022/05/31 09:03:19;;;;;;;3.13;1.40;;;17.10;99.90;;;;;;5034801;28;20208;-82
2022/05/31 09:05:53;;;;;;;2.63;2.10;;;17.10;99.90;;;;;;5033566;28;20214;-86
2022/05/31 09:08:25;;;;;;;2.60;1.57;;;17.10;99.90;;;;;;5031519;28;20204;-85
2022/05/31 09:11:01;;;;;;;2.63;1.50;;;17.00;99.90;;;;;;5046413;28;20226;-84
2022/05/31 09:13:34;;;;;;;2.43;1.90;;;17.20;99.90;;;;;;5028027;28;20207;-86
2022/05/31 09:16:09;;;;;;;1.50;1.40;;;17.20;99.90;;;;;;5030297;28;20561;-85
2022/05/31 09:18:42;;;;;;;3.23;1.70;;;17.20;99.90;;;;;;5032375;28;20209;-86
2022/05/31 09:21:20;;;;;;;2.40;1.90;;;17.20;99.90;;;;;;5033389;28;20209;-85
2022/05/31 09:23:48;;;;;;;4.80;2.30;;;17.50;99.90;;;;;;5034167;28;20553;-82
2022/05/31 09:26:35;;;;;;;3.63;2.13;;;17.60;99.90;;;;;;5032160;28;20231;-81
2022/05/31 09:29:09;;;;;;;2.40;2.10;;;17.70;99.90;;;;;;5031720;28;20218;-86
2022/05/31 09:31:44;;;;;;;2.00;1.90;;;17.50;99.90;;;;;;5011552;28;20207;-90
2022/05/31 09:34:38;;;;;;;3.80;2.30;;;17.60;99.90;;;;;;5034002;28;20214;-86
2022/05/31 09:37:17;;;;;;;3.23;1.50;;;17.80;99.90;;;;;;5032012;28;20227;-86
2022/05/31 09:39:58;;;;;;;5.67;1.60;;;18.20;99.90;;;;;;5030943;28;20210;-87
2022/05/31 09:42:33;;;;;;;1.47;1.30;;;18.30;99.90;;;;;;5033547;28;20214;-86
2022/05/31 09:45:08;;;;;;;4.03;1.50;;;18.30;99.90;;;;;;5033240;28;20569;-87
2022/05/31 09:47:36;;;;;;;3.03;1.55;;;18.70;99.90;;;;;;5014708;28;20423;-88
2022/05/31 09:50:05;;;;;;;2.23;1.50;;;19.00;98.80;;;;;;5031702;28;20220;-86
2022/05/31 09:52:38;;;;;;;2.43;1.50;;;18.90;98.10;;;;;;5031456;28;20205;-84
2022/05/31 09:58:00;;;;;;;2.10;1.57;;;18.90;97.50;;;;;;5029910;28;20339;-84
2022/05/31 10:00:27;;;;;;;2.97;1.90;;;18.80;98.30;;;;;;5032770;28;20231;-85
2022/05/31 10:03:08;;;;;;;2.50;1.80;;;18.60;98.80;;;;;;5030623;28;20205;-85
2022/05/31 10:05:39;;;;;;;3.27;1.90;;;18.50;98.20;;;;;;5031644;28;20276;-85
2022/05/31 10:08:15;;;;;;;3.17;2.60;;;18.40;98.30;;;;;;5032921;28;20208;-89
2022/05/31 10:10:47;;;;;;;3.47;1.70;;;18.40;98.30;;;;;;5030723;28;20199;-87
2022/05/31 10:13:35;;;;;;;2.50;1.83;;;18.30;98.00;;;;;;5031980;28;20207;-88
2022/05/31 10:16:11;;;;;;;3.50;1.60;;;18.20;97.30;;;;;;5030469;28;20211;-87
2022/05/31 10:18:51;;;;;;;1.90;1.20;;;18.10;97.00;;;;;;5031205;28;20212;-85
2022/05/31 10:21:32;;;;;;;2.23;1.60;;;18.30;95.70;;;;;;5032814;28;20207;-86
2022/05/31 10:24:06;;;;;;;1.40;1.20;;;18.50;96.30;;;;;;5044829;28;20226;-86
2022/05/31 10:26:37;;;;;;;2.80;1.40;;;18.60;96.00;;;;;;5052689;28;20237;-85
2022/05/31 10:29:12;;;;;;;1.40;1.30;;;18.80;97.00;;;;;;5052751;28;20215;-84
2022/05/31 10:31:40;;;;;;;1.50;1.40;;;19.10;94.70;;;;;;5042160;28;20209;-85
2022/05/31 10:34:36;;;;;;;1.50;1.40;;;18.80;94.50;;;;;;5032350;28;20235;-86
2022/05/31 10:37:07;;;;;;;1.47;1.20;;;18.70;93.90;;;;;;5027469;28;20457;-86
2022/05/31 10:39:38;;;;;;;1.47;1.10;;;18.60;93.90;;;;;;5035254;28;20220;-85
2022/05/31 10:42:13;;;;;;;2.37;1.03;;;18.70;93.80;;;;;;5035199;28;20248;-84
2022/05/31 10:44:45;;;;;;;1.20;1.10;;;18.90;93.20;;;;;;5035634;28;20614;-84
2022/05/31 10:47:13;;;;;;;1.57;1.20;;;18.90;93.50;;;;;;5034754;28;20219;-84
2022/05/31 10:49:43;;;;;;;1.77;1.20;;;19.00;93.00;;;;;;5033366;28;20217;-84
2022/05/31 10:52:22;;;;;;;1.37;1.20;;;18.80;92.70;;;;;;5036664;28;20222;-86
2022/05/31 10:55:26;;;;;;;1.07;1.07;;;19.00;93.40;;;;;;5036773;28;20224;-84
2022/05/31 10:58:07;;;;;;;1.30;1.00;;;19.00;93.20;;;;;;5036492;28;20226;-84
2022/05/31 11:00:39;;;;;;;3.83;1.30;;;19.30;92.80;;;;;;5017579;28;21061;-83
2022/05/31 11:03:25;;;;;;;0.90;0.90;;;19.50;93.80;;;;;;5026395;28;20225;-85
2022/05/31 11:06:13;;;;;;;1.40;1.30;;;19.80;92.90;;;;;;5035463;28;20218;-84
2022/05/31 11:11:51;;;;;;;2.20;1.93;;;20.30;92.90;;;;;;5035795;28;20209;-87
2022/05/31 11:14:45;;;;;;;1.27;1.20;;;20.40;92.60;;;;;;5035133;28;20191;-89
2022/05/31 11:17:30;;;;;;;1.43;1.33;;;20.50;93.20;;;;;;5027932;28;20693;-88
2022/05/31 11:20:04;;;;;;;1.33;1.00;;;20.60;92.60;;;;;;5036294;28;20634;-88
2022/05/31 11:22:48;;;;;;;1.50;1.40;;;20.50;91.80;;;;;;5032376;28;20211;-89
2022/05/31 11:25:39;;;;;;;2.83;1.30;;;20.10;92.80;;;;;;5024807;28;20228;-88
2022/05/31 11:28:19;;;;;;;3.43;1.40;;;20.00;93.30;;;;;;5030384;28;20215;-89
2022/05/31 11:31:06;;;;;;;1.63;1.37;;;19.70;92.40;;;;;;5036004;28;20205;-87
2022/05/31 11:34:05;;;;;;;2.37;1.50;;;19.60;92.80;;;;;;5036040;28;20403;-87
2022/05/31 11:36:41;;;;;;;2.53;1.80;;;19.80;93.00;;;;;;5034365;28;20211;-86
2022/05/31 11:39:29;;;;;;;3.40;1.70;;;19.90;93.30;;;;;;5035508;28;20665;-87
2022/05/31 11:42:11;;;;;;;3.07;2.00;;;19.70;93.60;;;;;;5035298;28;20220;-86
2022/05/31 11:45:01;;;;;;;3.23;2.10;;;19.50;93.80;;;;;;5035071;28;20210;-87
2022/05/31 11:47:51;;;;;;;4.10;2.20;;;19.60;94.10;;;;;;5034146;28;20453;-86
2022/05/31 11:50:26;;;;;;;3.10;1.80;;;19.40;93.70;;;;;;5033766;28;20203;-86
2022/05/31 11:53:12;;;;;;;3.17;1.60;;;19.40;93.20;;;;;;5033015;28;20202;-85
2022/05/31 11:55:50;;;;;;;2.73;1.67;;;19.50;93.40;;;;;;5030866;28;20199;-87
2022/05/31 11:58:25;;;;;;;2.80;2.30;;;19.40;93.80;;;;;;5030815;28;20258;-88
2022/05/31 12:01:05;;;;;;;4.80;2.33;;;19.60;93.60;;;;;;5035122;28;20198;-85
2022/05/31 12:03:40;;;;;;;6.00;2.10;;;19.80;93.50;;;;;;5033773;28;20214;-83
2022/05/31 12:06:13;;;;;;;2.40;1.80;;;20.10;93.30;;;;;;5033460;28;20435;-84
2022/05/31 12:08:47;;;;;;;5.10;2.33;;;20.30;92.90;;;;;;5034351;28;20209;-86
2022/05/31 12:11:23;;;;;;;1.70;1.60;;;20.10;92.90;;;;;;5034620;28;20638;-85
2022/05/31 12:13:52;;;;;;;3.63;1.83;;;19.90;93.30;;;;;;5029624;28;20216;-84
2022/05/31 12:16:22;;;;;;;1.97;1.73;;;19.80;93.00;;;;;;5033184;28;20608;-82
2022/05/31 12:19:03;;;;;;;5.37;1.80;;;19.90;93.20;;;;;;5032899;28;20716;-82
2022/05/31 12:21:37;;;;;;;1.73;1.20;;;19.90;92.80;;;;;;5034014;28;20211;-83
2022/05/31 12:24:11;;;;;;;2.27;1.50;;;20.20;92.20;;;;;;5034267;28;20206;-85
2022/05/31 12:26:41;;;;;;;2.33;1.33;;;20.30;92.20;;;;;;5034421;28;20283;-83
2022/05/31 12:29:14;;;;;;;1.77;1.67;;;20.00;93.10;;;;;;5034288;28;20210;-82
2022/05/31 12:31:43;;;;;;;2.10;1.03;;;20.30;91.90;;;;;;5034087;28;20219;-82
2022/05/31 12:34:35;;;;;;;1.53;0.90;;;20.50;90.20;;;;;;5033744;28;20207;-83
2022/05/31 12:37:06;;;;;;;1.23;0.90;;;20.40;88.30;;;;;;5033838;28;20214;-83
2022/05/31 12:39:34;;;;;;;3.10;1.17;;;20.70;90.00;;;;;;5033793;28;20568;-83
2022/05/31 12:42:32;;;;;;;1.13;1.03;;;20.80;90.20;;;;;;5033974;28;20203;-82
2022/05/31 12:45:20;;;;;;;3.10;1.33;;;20.90;90.30;;;;;;5029574;28;20654;-85
2022/05/31 12:47:59;;;;;;;1.47;1.10;;;20.70;90.00;;;;;;5020603;28;20211;-85
2022/05/31 12:51:09;;;;;;;1.10;0.87;;;20.60;90.20;;;;;;5033664;28;20690;-84
2022/05/31 12:53:58;;;;;;;4.83;1.10;;;20.70;90.80;;;;;;5025618;28;20212;-82
2022/05/31 12:56:58;;;;;;;1.67;1.20;;;20.80;90.70;;;;;;5014293;28;20206;-84
2022/05/31 12:59:50;;;;;;;1.77;1.30;;;20.90;89.60;;;;;;5014304;28;20303;-83
2022/05/31 13:02:28;;;;;;;4.27;1.30;;;20.60;88.80;;;;;;5020532;28;20219;-84
2022/05/31 13:04:59;;;;;;;1.50;1.03;;;20.30;89.50;;;;;;5033306;28;20207;-84
2022/05/31 13:07:42;;;;;;;2.57;1.30;;;20.10;89.00;;;;;;5032656;28;20553;-83
2022/05/31 13:10:38;;;;;;;1.83;1.30;;;20.10;90.00;;;;;;5030877;28;20212;-83
2022/05/31 13:21:30;;;;;;;1.20;1.10;;;21.00;90.10;;;;;;5033093;28;20253;-85
2022/05/31 13:23:58;;;;;;;1.23;1.03;;;20.80;89.60;;;;;;5047104;28;20206;-83
2022/05/31 13:26:32;;;;;;;0.80;0.80;;;21.00;88.40;;;;;;5052641;28;20236;-86
2022/05/31 13:29:02;;;;;;;2.40;1.10;;;21.40;89.90;;;;;;5052964;28;20668;-84
2022/05/31 13:31:33;;;;;;;0.70;0.70;;;21.70;88.10;;;;;;5053168;28;20233;-85
2022/05/31 13:34:02;;;;;;;2.00;0.90;;;21.80;88.10;;;;;;5053431;28;20233;-84